sensor_id;sensor_type;location;lat;lon;timestamp;P1;durP1;ratioP1;P2;durP2;ratioP2
10096;SDS011;5087;42.662;23.466;2023-12-07T00:02:04;0.40;;;0.40;;
10096;SDS011;5087;42.662;23.466;2023-12-07T00:04:32;0.30;;;0.30;;
10096;SDS011;5087;42.662;23.466;2023-12-07T00:06:59;0.30;;;0.30;;
10096;SDS011;5087;42.662;23.466;2023-12-07T00:09:26;0.40;;;0.40;;
10096;SDS011;5087;42.662;23.466;2023-12-07T00:11:53;0.40;;;0.40;;
10096;SDS011;5087;42.662;23.466;2023-12-07T00:14:22;0.50;;;0.50;;
10096;SDS011;5087;42.662;23.466;2023-12-07T00:16:50;0.50;;;0.50;;
10096;SDS011;5087;42.662;23.466;2023-12-07T00:19:20;0.60;;;0.60;;
10096;SDS011;5087;42.662;23.466;2023-12-07T00:21:47;0.70;;;0.70;;
10096;SDS011;5087;42.662;23.466;2023-12-07T00:24:17;0.70;;;0.70;;
10096;SDS011;5087;42.662;23.466;2023-12-07T00:26:44;0.70;;;0.70;;
10096;SDS011;5087;42.662;23.466;2023-12-07T00:29:12;0.90;;;0.90;;
10096;SDS011;5087;42.662;23.466;2023-12-07T00:31:41;0.70;;;0.70;;
10096;SDS011;5087;42.662;23.466;2023-12-07T00:34:09;0.80;;;0.80;;
10096;SDS011;5087;42.662;23.466;2023-12-07T00:36:36;0.70;;;0.70;;
10096;SDS011;5087;42.662;23.466;2023-12-07T00:39:06;0.80;;;0.80;;
10096;SDS011;5087;42.662;23.466;2023-12-07T00:41:34;0.80;;;0.80;;
10096;SDS011;5087;42.662;23.466;2023-12-07T00:44:01;0.80;;;0.80;;
10096;SDS011;5087;42.662;23.466;2023-12-07T00:46:28;0.80;;;0.80;;
10096;SDS011;5087;42.662;23.466;2023-12-07T00:48:57;0.90;;;0.90;;
10096;SDS011;5087;42.662;23.466;2023-12-07T00:51:25;0.70;;;0.70;;
10096;SDS011;5087;42.662;23.466;2023-12-07T00:53:52;0.80;;;0.80;;
10096;SDS011;5087;42.662;23.466;2023-12-07T00:56:19;0.80;;;0.80;;
10096;SDS011;5087;42.662;23.466;2023-12-07T00:58:47;0.90;;;0.90;;
10096;SDS011;5087;42.662;23.466;2023-12-07T01:01:14;1.00;;;1.00;;
10096;SDS011;5087;42.662;23.466;2023-12-07T01:03:41;1.10;;;1.10;;
10096;SDS011;5087;42.662;23.466;2023-12-07T01:06:10;1.00;;;1.00;;
10096;SDS011;5087;42.662;23.466;2023-12-07T01:08:38;1.00;;;1.00;;
10096;SDS011;5087;42.662;23.466;2023-12-07T01:11:05;1.00;;;1.00;;
10096;SDS011;5087;42.662;23.466;2023-12-07T01:13:33;0.97;;;0.97;;
10096;SDS011;5087;42.662;23.466;2023-12-07T01:16:01;1.00;;;1.00;;
10096;SDS011;5087;42.662;23.466;2023-12-07T01:18:28;1.00;;;1.00;;
10096;SDS011;5087;42.662;23.466;2023-12-07T01:20:56;1.00;;;1.00;;
10096;SDS011;5087;42.662;23.466;2023-12-07T01:23:25;1.00;;;1.00;;
10096;SDS011;5087;42.662;23.466;2023-12-07T01:25:52;1.40;;;1.40;;
10096;SDS011;5087;42.662;23.466;2023-12-07T01:28:19;1.70;;;1.70;;
10096;SDS011;5087;42.662;23.466;2023-12-07T01:30:47;2.10;;;2.10;;
10096;SDS011;5087;42.662;23.466;2023-12-07T01:33:17;1.77;;;1.77;;
10096;SDS011;5087;42.662;23.466;2023-12-07T01:35:44;1.20;;;1.20;;
10096;SDS011;5087;42.662;23.466;2023-12-07T01:38:11;1.50;;;1.50;;
10096;SDS011;5087;42.662;23.466;2023-12-07T01:40:40;1.47;;;1.47;;
10096;SDS011;5087;42.662;23.466;2023-12-07T01:43:09;1.40;;;1.40;;
10096;SDS011;5087;42.662;23.466;2023-12-07T01:45:42;1.70;;;1.70;;
10096;SDS011;5087;42.662;23.466;2023-12-07T01:48:10;2.50;;;2.50;;
10096;SDS011;5087;42.662;23.466;2023-12-07T01:50:37;2.00;;;2.00;;
10096;SDS011;5087;42.662;23.466;2023-12-07T01:53:04;1.70;;;1.70;;
10096;SDS011;5087;42.662;23.466;2023-12-07T01:55:32;2.17;;;2.17;;
10096;SDS011;5087;42.662;23.466;2023-12-07T01:58:02;1.60;;;1.60;;
10096;SDS011;5087;42.662;23.466;2023-12-07T02:00:29;1.50;;;1.50;;
10096;SDS011;5087;42.662;23.466;2023-12-07T02:02:57;1.60;;;1.60;;
10096;SDS011;5087;42.662;23.466;2023-12-07T02:05:25;1.60;;;1.60;;
10096;SDS011;5087;42.662;23.466;2023-12-07T02:07:53;1.40;;;1.40;;
10096;SDS011;5087;42.662;23.466;2023-12-07T02:10:20;2.30;;;2.30;;
10096;SDS011;5087;42.662;23.466;2023-12-07T02:12:48;2.30;;;2.30;;
10096;SDS011;5087;42.662;23.466;2023-12-07T02:15:18;1.70;;;1.70;;
10096;SDS011;5087;42.662;23.466;2023-12-07T02:17:51;1.10;;;1.10;;
10096;SDS011;5087;42.662;23.466;2023-12-07T02:20:36;1.23;;;1.23;;
10096;SDS011;5087;42.662;23.466;2023-12-07T02:23:08;1.10;;;1.10;;
10096;SDS011;5087;42.662;23.466;2023-12-07T02:25:40;1.50;;;1.50;;
10096;SDS011;5087;42.662;23.466;2023-12-07T02:29:07;1.10;;;1.10;;
10096;SDS011;5087;42.662;23.466;2023-12-07T02:31:35;0.90;;;0.90;;
10096;SDS011;5087;42.662;23.466;2023-12-07T02:34:04;0.90;;;0.90;;
10096;SDS011;5087;42.662;23.466;2023-12-07T02:36:31;0.80;;;0.80;;
10096;SDS011;5087;42.662;23.466;2023-12-07T02:39:01;0.83;;;0.83;;
10096;SDS011;5087;42.662;23.466;2023-12-07T02:41:30;0.90;;;0.90;;
10096;SDS011;5087;42.662;23.466;2023-12-07T02:43:58;0.90;;;0.90;;
10096;SDS011;5087;42.662;23.466;2023-12-07T02:46:27;0.90;;;0.90;;
10096;SDS011;5087;42.662;23.466;2023-12-07T02:48:57;0.90;;;0.90;;
10096;SDS011;5087;42.662;23.466;2023-12-07T02:51:25;1.10;;;1.10;;
10096;SDS011;5087;42.662;23.466;2023-12-07T02:53:52;1.17;;;1.17;;
10096;SDS011;5087;42.662;23.466;2023-12-07T02:56:20;1.10;;;1.10;;
10096;SDS011;5087;42.662;23.466;2023-12-07T02:58:47;1.00;;;1.00;;
10096;SDS011;5087;42.662;23.466;2023-12-07T03:01:17;0.70;;;0.70;;
10096;SDS011;5087;42.662;23.466;2023-12-07T03:03:46;0.50;;;0.50;;
10096;SDS011;5087;42.662;23.466;2023-12-07T03:06:14;0.50;;;0.50;;
10096;SDS011;5087;42.662;23.466;2023-12-07T03:08:42;0.50;;;0.50;;
10096;SDS011;5087;42.662;23.466;2023-12-07T03:11:10;0.50;;;0.50;;
10096;SDS011;5087;42.662;23.466;2023-12-07T03:13:37;0.40;;;0.40;;
10096;SDS011;5087;42.662;23.466;2023-12-07T03:16:07;0.50;;;0.50;;
10096;SDS011;5087;42.662;23.466;2023-12-07T03:18:35;0.40;;;0.40;;
10096;SDS011;5087;42.662;23.466;2023-12-07T03:21:05;0.50;;;0.50;;
10096;SDS011;5087;42.662;23.466;2023-12-07T03:23:32;0.60;;;0.60;;
10096;SDS011;5087;42.662;23.466;2023-12-07T03:25:59;0.43;;;0.43;;
10096;SDS011;5087;42.662;23.466;2023-12-07T03:28:27;0.50;;;0.50;;
10096;SDS011;5087;42.662;23.466;2023-12-07T03:30:56;0.40;;;0.40;;
10096;SDS011;5087;42.662;23.466;2023-12-07T03:33:23;0.30;;;0.30;;
10096;SDS011;5087;42.662;23.466;2023-12-07T03:35:51;0.40;;;0.40;;
10096;SDS011;5087;42.662;23.466;2023-12-07T03:38:20;0.40;;;0.40;;
10096;SDS011;5087;42.662;23.466;2023-12-07T03:40:48;0.30;;;0.30;;
10096;SDS011;5087;42.662;23.466;2023-12-07T03:43:17;0.40;;;0.40;;
10096;SDS011;5087;42.662;23.466;2023-12-07T03:45:46;0.50;;;0.50;;
10096;SDS011;5087;42.662;23.466;2023-12-07T03:48:14;0.50;;;0.50;;
10096;SDS011;5087;42.662;23.466;2023-12-07T03:50:41;0.30;;;0.30;;
10096;SDS011;5087;42.662;23.466;2023-12-07T03:53:08;0.50;;;0.50;;
10096;SDS011;5087;42.662;23.466;2023-12-07T03:55:37;0.50;;;0.50;;
10096;SDS011;5087;42.662;23.466;2023-12-07T03:58:05;0.60;;;0.60;;
10096;SDS011;5087;42.662;23.466;2023-12-07T04:00:32;0.60;;;0.60;;
10096;SDS011;5087;42.662;23.466;2023-12-07T04:03:00;0.70;;;0.70;;
10096;SDS011;5087;42.662;23.466;2023-12-07T04:05:27;0.60;;;0.60;;
10096;SDS011;5087;42.662;23.466;2023-12-07T04:07:54;0.70;;;0.70;;
10096;SDS011;5087;42.662;23.466;2023-12-07T04:10:22;0.70;;;0.70;;
10096;SDS011;5087;42.662;23.466;2023-12-07T04:12:54;0.80;;;0.80;;
10096;SDS011;5087;42.662;23.466;2023-12-07T04:15:22;0.70;;;0.70;;
10096;SDS011;5087;42.662;23.466;2023-12-07T04:17:50;0.80;;;0.80;;
10096;SDS011;5087;42.662;23.466;2023-12-07T04:20:19;0.80;;;0.80;;
10096;SDS011;5087;42.662;23.466;2023-12-07T04:22:47;0.90;;;0.90;;
10096;SDS011;5087;42.662;23.466;2023-12-07T04:25:15;0.80;;;0.80;;
10096;SDS011;5087;42.662;23.466;2023-12-07T04:27:42;0.77;;;0.77;;
10096;SDS011;5087;42.662;23.466;2023-12-07T04:30:11;0.67;;;0.67;;
10096;SDS011;5087;42.662;23.466;2023-12-07T04:32:39;0.70;;;0.70;;
10096;SDS011;5087;42.662;23.466;2023-12-07T04:35:07;0.70;;;0.70;;
10096;SDS011;5087;42.662;23.466;2023-12-07T04:37:34;0.60;;;0.60;;
10096;SDS011;5087;42.662;23.466;2023-12-07T04:40:02;0.50;;;0.50;;
10096;SDS011;5087;42.662;23.466;2023-12-07T04:42:30;0.60;;;0.60;;
10096;SDS011;5087;42.662;23.466;2023-12-07T04:44:58;0.50;;;0.50;;
10096;SDS011;5087;42.662;23.466;2023-12-07T04:47:27;0.60;;;0.60;;
10096;SDS011;5087;42.662;23.466;2023-12-07T04:49:55;0.30;;;0.30;;
10096;SDS011;5087;42.662;23.466;2023-12-07T04:52:22;0.40;;;0.40;;
10096;SDS011;5087;42.662;23.466;2023-12-07T04:54:49;0.50;;;0.50;;
10096;SDS011;5087;42.662;23.466;2023-12-07T04:57:19;0.50;;;0.50;;
10096;SDS011;5087;42.662;23.466;2023-12-07T04:59:47;0.50;;;0.50;;
10096;SDS011;5087;42.662;23.466;2023-12-07T05:02:14;0.60;;;0.60;;
10096;SDS011;5087;42.662;23.466;2023-12-07T05:04:42;0.60;;;0.60;;
10096;SDS011;5087;42.662;23.466;2023-12-07T05:07:10;0.60;;;0.60;;
10096;SDS011;5087;42.662;23.466;2023-12-07T05:09:38;0.70;;;0.70;;
10096;SDS011;5087;42.662;23.466;2023-12-07T05:12:05;0.70;;;0.70;;
10096;SDS011;5087;42.662;23.466;2023-12-07T05:14:33;0.63;;;0.63;;
10096;SDS011;5087;42.662;23.466;2023-12-07T05:17:01;0.60;;;0.60;;
10096;SDS011;5087;42.662;23.466;2023-12-07T05:19:29;0.50;;;0.50;;
10096;SDS011;5087;42.662;23.466;2023-12-07T05:21:58;0.60;;;0.60;;
10096;SDS011;5087;42.662;23.466;2023-12-07T05:24:25;0.60;;;0.60;;
10096;SDS011;5087;42.662;23.466;2023-12-07T05:26:52;0.50;;;0.50;;
10096;SDS011;5087;42.662;23.466;2023-12-07T05:29:21;0.77;;;0.77;;
10096;SDS011;5087;42.662;23.466;2023-12-07T05:31:48;0.80;;;0.80;;
10096;SDS011;5087;42.662;23.466;2023-12-07T05:34:16;1.00;;;1.00;;
10096;SDS011;5087;42.662;23.466;2023-12-07T05:36:44;0.90;;;0.90;;
10096;SDS011;5087;42.662;23.466;2023-12-07T05:39:14;0.90;;;0.90;;
10096;SDS011;5087;42.662;23.466;2023-12-07T05:41:42;0.90;;;0.90;;
10096;SDS011;5087;42.662;23.466;2023-12-07T05:44:12;0.70;;;0.70;;
10096;SDS011;5087;42.662;23.466;2023-12-07T05:46:39;0.70;;;0.70;;
10096;SDS011;5087;42.662;23.466;2023-12-07T05:49:10;0.50;;;0.50;;
10096;SDS011;5087;42.662;23.466;2023-12-07T05:51:40;0.50;;;0.50;;
10096;SDS011;5087;42.662;23.466;2023-12-07T05:54:08;0.47;;;0.47;;
10096;SDS011;5087;42.662;23.466;2023-12-07T05:56:36;0.40;;;0.40;;
10096;SDS011;5087;42.662;23.466;2023-12-07T05:59:06;0.30;;;0.30;;
10096;SDS011;5087;42.662;23.466;2023-12-07T06:01:33;0.10;;;0.10;;
10096;SDS011;5087;42.662;23.466;2023-12-07T06:04:01;0.10;;;0.10;;
10096;SDS011;5087;42.662;23.466;2023-12-07T06:06:28;0.10;;;0.10;;
10096;SDS011;5087;42.662;23.466;2023-12-07T06:08:56;0.10;;;0.10;;
10096;SDS011;5087;42.662;23.466;2023-12-07T06:11:23;0.10;;;0.10;;
10096;SDS011;5087;42.662;23.466;2023-12-07T06:13:52;0.10;;;0.10;;
10096;SDS011;5087;42.662;23.466;2023-12-07T06:16:22;0.10;;;0.10;;
10096;SDS011;5087;42.662;23.466;2023-12-07T06:18:53;0.10;;;0.10;;
10096;SDS011;5087;42.662;23.466;2023-12-07T06:21:20;0.10;;;0.10;;
10096;SDS011;5087;42.662;23.466;2023-12-07T06:23:48;0.00;;;0.00;;
10096;SDS011;5087;42.662;23.466;2023-12-07T06:26:15;0.10;;;0.10;;
10096;SDS011;5087;42.662;23.466;2023-12-07T06:28:44;0.10;;;0.10;;
10096;SDS011;5087;42.662;23.466;2023-12-07T06:31:13;0.20;;;0.20;;
10096;SDS011;5087;42.662;23.466;2023-12-07T06:33:45;0.30;;;0.30;;
10096;SDS011;5087;42.662;23.466;2023-12-07T06:36:17;0.20;;;0.20;;
10096;SDS011;5087;42.662;23.466;2023-12-07T06:38:45;0.20;;;0.20;;
10096;SDS011;5087;42.662;23.466;2023-12-07T06:41:12;0.20;;;0.20;;
10096;SDS011;5087;42.662;23.466;2023-12-07T06:43:40;0.20;;;0.20;;
10096;SDS011;5087;42.662;23.466;2023-12-07T06:46:09;0.20;;;0.20;;
10096;SDS011;5087;42.662;23.466;2023-12-07T06:48:39;0.10;;;0.10;;
10096;SDS011;5087;42.662;23.466;2023-12-07T06:51:06;0.10;;;0.10;;
10096;SDS011;5087;42.662;23.466;2023-12-07T06:53:33;0.10;;;0.10;;
10096;SDS011;5087;42.662;23.466;2023-12-07T06:56:01;0.20;;;0.20;;
10096;SDS011;5087;42.662;23.466;2023-12-07T06:58:28;0.10;;;0.10;;
10096;SDS011;5087;42.662;23.466;2023-12-07T07:00:56;0.10;;;0.10;;
10096;SDS011;5087;42.662;23.466;2023-12-07T07:06:23;0.10;;;0.10;;
10096;SDS011;5087;42.662;23.466;2023-12-07T07:08:51;0.10;;;0.10;;
10096;SDS011;5087;42.662;23.466;2023-12-07T07:11:18;0.00;;;0.00;;
10096;SDS011;5087;42.662;23.466;2023-12-07T07:13:45;0.10;;;0.10;;
10096;SDS011;5087;42.662;23.466;2023-12-07T07:16:12;0.00;;;0.00;;
10096;SDS011;5087;42.662;23.466;2023-12-07T07:18:40;0.10;;;0.10;;
10096;SDS011;5087;42.662;23.466;2023-12-07T07:21:07;0.00;;;0.00;;
10096;SDS011;5087;42.662;23.466;2023-12-07T07:23:36;0.00;;;0.00;;
10096;SDS011;5087;42.662;23.466;2023-12-07T07:26:04;0.00;;;0.00;;
10096;SDS011;5087;42.662;23.466;2023-12-07T07:28:31;0.00;;;0.00;;
10096;SDS011;5087;42.662;23.466;2023-12-07T07:30:58;0.00;;;0.00;;
10096;SDS011;5087;42.662;23.466;2023-12-07T07:33:26;0.00;;;0.00;;
10096;SDS011;5087;42.662;23.466;2023-12-07T07:35:53;0.10;;;0.10;;
10096;SDS011;5087;42.662;23.466;2023-12-07T07:38:20;0.00;;;0.00;;
10096;SDS011;5087;42.662;23.466;2023-12-07T07:40:52;0.03;;;0.03;;
10096;SDS011;5087;42.662;23.466;2023-12-07T07:43:19;0.10;;;0.10;;
10096;SDS011;5087;42.662;23.466;2023-12-07T07:45:49;0.00;;;0.00;;
10096;SDS011;5087;42.662;23.466;2023-12-07T07:48:19;0.10;;;0.10;;
10096;SDS011;5087;42.662;23.466;2023-12-07T07:50:46;0.00;;;0.00;;
10096;SDS011;5087;42.662;23.466;2023-12-07T07:53:14;0.10;;;0.10;;
10096;SDS011;5087;42.662;23.466;2023-12-07T07:55:41;0.10;;;0.10;;
10096;SDS011;5087;42.662;23.466;2023-12-07T07:58:10;0.10;;;0.10;;
10096;SDS011;5087;42.662;23.466;2023-12-07T08:00:37;0.10;;;0.10;;
10096;SDS011;5087;42.662;23.466;2023-12-07T08:03:04;0.10;;;0.10;;
10096;SDS011;5087;42.662;23.466;2023-12-07T08:05:31;0.00;;;0.00;;
10096;SDS011;5087;42.662;23.466;2023-12-07T08:07:59;0.10;;;0.10;;
10096;SDS011;5087;42.662;23.466;2023-12-07T08:10:26;0.20;;;0.20;;
10096;SDS011;5087;42.662;23.466;2023-12-07T08:12:53;0.20;;;0.20;;
10096;SDS011;5087;42.662;23.466;2023-12-07T08:15:21;0.20;;;0.20;;
10096;SDS011;5087;42.662;23.466;2023-12-07T08:17:48;0.20;;;0.20;;
10096;SDS011;5087;42.662;23.466;2023-12-07T08:20:16;0.30;;;0.30;;
10096;SDS011;5087;42.662;23.466;2023-12-07T08:22:43;0.20;;;0.20;;
10096;SDS011;5087;42.662;23.466;2023-12-07T08:25:10;0.30;;;0.30;;
10096;SDS011;5087;42.662;23.466;2023-12-07T08:27:38;0.30;;;0.30;;
10096;SDS011;5087;42.662;23.466;2023-12-07T08:30:06;0.50;;;0.50;;
10096;SDS011;5087;42.662;23.466;2023-12-07T08:32:36;0.30;;;0.30;;
10096;SDS011;5087;42.662;23.466;2023-12-07T08:35:03;0.30;;;0.30;;
10096;SDS011;5087;42.662;23.466;2023-12-07T08:37:32;0.40;;;0.40;;
10096;SDS011;5087;42.662;23.466;2023-12-07T08:39:59;0.50;;;0.50;;
10096;SDS011;5087;42.662;23.466;2023-12-07T08:42:27;0.50;;;0.50;;
10096;SDS011;5087;42.662;23.466;2023-12-07T08:44:56;0.50;;;0.50;;
10096;SDS011;5087;42.662;23.466;2023-12-07T08:47:25;0.40;;;0.40;;
10096;SDS011;5087;42.662;23.466;2023-12-07T08:49:54;0.50;;;0.50;;
10096;SDS011;5087;42.662;23.466;2023-12-07T08:52:21;0.50;;;0.50;;
10096;SDS011;5087;42.662;23.466;2023-12-07T08:54:48;0.40;;;0.40;;
10096;SDS011;5087;42.662;23.466;2023-12-07T08:57:18;0.50;;;0.50;;
10096;SDS011;5087;42.662;23.466;2023-12-07T08:59:45;0.60;;;0.60;;
10096;SDS011;5087;42.662;23.466;2023-12-07T09:02:12;0.60;;;0.60;;
10096;SDS011;5087;42.662;23.466;2023-12-07T09:04:40;0.60;;;0.60;;
10096;SDS011;5087;42.662;23.466;2023-12-07T09:07:09;0.60;;;0.60;;
10096;SDS011;5087;42.662;23.466;2023-12-07T09:09:41;0.53;;;0.53;;
10096;SDS011;5087;42.662;23.466;2023-12-07T09:12:12;0.60;;;0.60;;
10096;SDS011;5087;42.662;23.466;2023-12-07T09:14:39;0.57;;;0.57;;
10096;SDS011;5087;42.662;23.466;2023-12-07T09:17:06;0.43;;;0.43;;
10096;SDS011;5087;42.662;23.466;2023-12-07T09:19:33;0.50;;;0.50;;
10096;SDS011;5087;42.662;23.466;2023-12-07T09:22:00;0.40;;;0.40;;
10096;SDS011;5087;42.662;23.466;2023-12-07T09:24:29;0.50;;;0.50;;
10096;SDS011;5087;42.662;23.466;2023-12-07T09:26:56;0.60;;;0.60;;
10096;SDS011;5087;42.662;23.466;2023-12-07T09:29:23;0.67;;;0.67;;
10096;SDS011;5087;42.662;23.466;2023-12-07T09:31:53;0.70;;;0.70;;
10096;SDS011;5087;42.662;23.466;2023-12-07T09:34:21;0.70;;;0.70;;
10096;SDS011;5087;42.662;23.466;2023-12-07T09:36:48;0.60;;;0.60;;
10096;SDS011;5087;42.662;23.466;2023-12-07T09:39:16;0.60;;;0.60;;
10096;SDS011;5087;42.662;23.466;2023-12-07T09:41:45;0.80;;;0.80;;
10096;SDS011;5087;42.662;23.466;2023-12-07T09:44:13;0.80;;;0.80;;
10096;SDS011;5087;42.662;23.466;2023-12-07T09:46:40;0.80;;;0.80;;
10096;SDS011;5087;42.662;23.466;2023-12-07T09:49:07;0.80;;;0.80;;
10096;SDS011;5087;42.662;23.466;2023-12-07T09:51:35;1.00;;;1.00;;
10096;SDS011;5087;42.662;23.466;2023-12-07T09:54:03;0.97;;;0.97;;
10096;SDS011;5087;42.662;23.466;2023-12-07T09:56:31;0.97;;;0.97;;
10096;SDS011;5087;42.662;23.466;2023-12-07T09:59:00;0.93;;;0.93;;
10096;SDS011;5087;42.662;23.466;2023-12-07T10:01:30;0.80;;;0.80;;
10096;SDS011;5087;42.662;23.466;2023-12-07T10:04:18;0.90;;;0.90;;
10096;SDS011;5087;42.662;23.466;2023-12-07T10:06:48;0.90;;;0.90;;
10096;SDS011;5087;42.662;23.466;2023-12-07T10:09:16;0.90;;;0.90;;
10096;SDS011;5087;42.662;23.466;2023-12-07T10:11:44;0.90;;;0.90;;
10096;SDS011;5087;42.662;23.466;2023-12-07T10:14:14;0.80;;;0.80;;
10096;SDS011;5087;42.662;23.466;2023-12-07T10:16:51;0.90;;;0.90;;
10096;SDS011;5087;42.662;23.466;2023-12-07T10:19:20;1.00;;;1.00;;
10096;SDS011;5087;42.662;23.466;2023-12-07T10:21:48;1.03;;;1.03;;
10096;SDS011;5087;42.662;23.466;2023-12-07T10:24:18;0.90;;;0.90;;
10096;SDS011;5087;42.662;23.466;2023-12-07T10:26:49;0.90;;;0.90;;
10096;SDS011;5087;42.662;23.466;2023-12-07T10:29:20;1.00;;;1.00;;
10096;SDS011;5087;42.662;23.466;2023-12-07T10:31:48;0.90;;;0.90;;
10096;SDS011;5087;42.662;23.466;2023-12-07T10:34:18;0.83;;;0.83;;
10096;SDS011;5087;42.662;23.466;2023-12-07T10:36:46;1.00;;;1.00;;
10096;SDS011;5087;42.662;23.466;2023-12-07T10:39:15;1.00;;;1.00;;
10096;SDS011;5087;42.662;23.466;2023-12-07T10:41:43;1.07;;;1.07;;
10096;SDS011;5087;42.662;23.466;2023-12-07T10:44:13;1.00;;;1.00;;
10096;SDS011;5087;42.662;23.466;2023-12-07T10:46:44;1.00;;;1.00;;
10096;SDS011;5087;42.662;23.466;2023-12-07T10:49:17;0.90;;;0.90;;
10096;SDS011;5087;42.662;23.466;2023-12-07T10:51:50;0.90;;;0.90;;
10096;SDS011;5087;42.662;23.466;2023-12-07T10:54:22;0.97;;;0.97;;
10096;SDS011;5087;42.662;23.466;2023-12-07T10:56:52;1.00;;;1.00;;
10096;SDS011;5087;42.662;23.466;2023-12-07T10:59:21;0.90;;;0.90;;
10096;SDS011;5087;42.662;23.466;2023-12-07T11:01:51;0.80;;;0.80;;
10096;SDS011;5087;42.662;23.466;2023-12-07T11:04:19;0.90;;;0.90;;
10096;SDS011;5087;42.662;23.466;2023-12-07T11:06:48;0.80;;;0.80;;
10096;SDS011;5087;42.662;23.466;2023-12-07T11:09:19;0.80;;;0.80;;
10096;SDS011;5087;42.662;23.466;2023-12-07T11:11:50;0.90;;;0.90;;
10096;SDS011;5087;42.662;23.466;2023-12-07T11:14:21;0.70;;;0.70;;
10096;SDS011;5087;42.662;23.466;2023-12-07T11:16:52;0.70;;;0.70;;
10096;SDS011;5087;42.662;23.466;2023-12-07T11:22:13;0.50;;;0.50;;
10096;SDS011;5087;42.662;23.466;2023-12-07T11:27:29;0.50;;;0.50;;
10096;SDS011;5087;42.662;23.466;2023-12-07T11:29:58;0.40;;;0.40;;
10096;SDS011;5087;42.662;23.466;2023-12-07T11:32:28;0.30;;;0.30;;
10096;SDS011;5087;42.662;23.466;2023-12-07T11:35:01;0.40;;;0.40;;
10096;SDS011;5087;42.662;23.466;2023-12-07T11:40:28;0.30;;;0.30;;
10096;SDS011;5087;42.662;23.466;2023-12-07T11:42:56;0.47;;;0.47;;
10096;SDS011;5087;42.662;23.466;2023-12-07T11:45:35;0.40;;;0.40;;
10096;SDS011;5087;42.662;23.466;2023-12-07T11:48:09;0.40;;;0.40;;
10096;SDS011;5087;42.662;23.466;2023-12-07T11:53:21;0.40;;;0.40;;
10096;SDS011;5087;42.662;23.466;2023-12-07T11:55:49;0.30;;;0.30;;
10096;SDS011;5087;42.662;23.466;2023-12-07T11:58:16;0.30;;;0.30;;
10096;SDS011;5087;42.662;23.466;2023-12-07T12:00:43;0.30;;;0.30;;
10096;SDS011;5087;42.662;23.466;2023-12-07T12:03:13;0.30;;;0.30;;
10096;SDS011;5087;42.662;23.466;2023-12-07T12:05:41;0.30;;;0.30;;
10096;SDS011;5087;42.662;23.466;2023-12-07T12:08:09;0.30;;;0.30;;
10096;SDS011;5087;42.662;23.466;2023-12-07T12:10:37;0.30;;;0.30;;
10096;SDS011;5087;42.662;23.466;2023-12-07T12:13:05;0.40;;;0.40;;
10096;SDS011;5087;42.662;23.466;2023-12-07T12:15:32;0.30;;;0.30;;
10096;SDS011;5087;42.662;23.466;2023-12-07T12:17:59;0.30;;;0.30;;
10096;SDS011;5087;42.662;23.466;2023-12-07T12:20:29;0.40;;;0.40;;
10096;SDS011;5087;42.662;23.466;2023-12-07T12:22:57;0.40;;;0.40;;
10096;SDS011;5087;42.662;23.466;2023-12-07T12:25:25;0.30;;;0.30;;
10096;SDS011;5087;42.662;23.466;2023-12-07T12:27:54;0.40;;;0.40;;
10096;SDS011;5087;42.662;23.466;2023-12-07T12:30:22;0.33;;;0.33;;
10096;SDS011;5087;42.662;23.466;2023-12-07T12:32:52;0.30;;;0.30;;
10096;SDS011;5087;42.662;23.466;2023-12-07T12:35:20;0.30;;;0.30;;
10096;SDS011;5087;42.662;23.466;2023-12-07T12:37:49;0.23;;;0.23;;
10096;SDS011;5087;42.662;23.466;2023-12-07T12:40:17;0.30;;;0.30;;
10096;SDS011;5087;42.662;23.466;2023-12-07T12:42:45;0.40;;;0.40;;
10096;SDS011;5087;42.662;23.466;2023-12-07T12:45:13;0.40;;;0.40;;
10096;SDS011;5087;42.662;23.466;2023-12-07T12:47:42;0.40;;;0.40;;
10096;SDS011;5087;42.662;23.466;2023-12-07T12:50:10;0.47;;;0.47;;
10096;SDS011;5087;42.662;23.466;2023-12-07T12:52:39;0.40;;;0.40;;
10096;SDS011;5087;42.662;23.466;2023-12-07T12:55:09;0.30;;;0.30;;
10096;SDS011;5087;42.662;23.466;2023-12-07T12:57:36;0.40;;;0.40;;
10096;SDS011;5087;42.662;23.466;2023-12-07T13:00:04;0.40;;;0.40;;
10096;SDS011;5087;42.662;23.466;2023-12-07T13:02:33;0.40;;;0.40;;
10096;SDS011;5087;42.662;23.466;2023-12-07T13:05:01;0.50;;;0.50;;
10096;SDS011;5087;42.662;23.466;2023-12-07T13:07:32;0.40;;;0.40;;
10096;SDS011;5087;42.662;23.466;2023-12-07T13:10:01;0.40;;;0.40;;
10096;SDS011;5087;42.662;23.466;2023-12-07T13:12:30;0.50;;;0.50;;
10096;SDS011;5087;42.662;23.466;2023-12-07T13:15:01;0.30;;;0.30;;
10096;SDS011;5087;42.662;23.466;2023-12-07T13:17:31;0.30;;;0.30;;
10096;SDS011;5087;42.662;23.466;2023-12-07T13:19:58;0.40;;;0.40;;
10096;SDS011;5087;42.662;23.466;2023-12-07T13:22:26;0.37;;;0.37;;
10096;SDS011;5087;42.662;23.466;2023-12-07T13:24:53;0.40;;;0.40;;
10096;SDS011;5087;42.662;23.466;2023-12-07T13:27:20;0.40;;;0.40;;
10096;SDS011;5087;42.662;23.466;2023-12-07T13:29:50;0.30;;;0.30;;
10096;SDS011;5087;42.662;23.466;2023-12-07T13:32:18;0.40;;;0.40;;
10096;SDS011;5087;42.662;23.466;2023-12-07T13:34:45;0.40;;;0.40;;
10096;SDS011;5087;42.662;23.466;2023-12-07T13:37:13;0.30;;;0.30;;
10096;SDS011;5087;42.662;23.466;2023-12-07T13:39:40;0.40;;;0.40;;
10096;SDS011;5087;42.662;23.466;2023-12-07T13:42:08;0.30;;;0.30;;
10096;SDS011;5087;42.662;23.466;2023-12-07T13:44:35;0.40;;;0.40;;
10096;SDS011;5087;42.662;23.466;2023-12-07T13:47:04;0.30;;;0.30;;
10096;SDS011;5087;42.662;23.466;2023-12-07T13:49:31;0.30;;;0.30;;
10096;SDS011;5087;42.662;23.466;2023-12-07T13:51:58;0.30;;;0.30;;
10096;SDS011;5087;42.662;23.466;2023-12-07T13:54:25;0.30;;;0.30;;
10096;SDS011;5087;42.662;23.466;2023-12-07T13:56:53;0.30;;;0.30;;
10096;SDS011;5087;42.662;23.466;2023-12-07T13:59:20;0.20;;;0.20;;
10096;SDS011;5087;42.662;23.466;2023-12-07T14:01:48;0.30;;;0.30;;
10096;SDS011;5087;42.662;23.466;2023-12-07T14:04:20;0.30;;;0.30;;
10096;SDS011;5087;42.662;23.466;2023-12-07T14:06:48;0.20;;;0.20;;
10096;SDS011;5087;42.662;23.466;2023-12-07T14:09:15;0.30;;;0.30;;
10096;SDS011;5087;42.662;23.466;2023-12-07T14:11:43;0.20;;;0.20;;
10096;SDS011;5087;42.662;23.466;2023-12-07T14:14:10;0.20;;;0.20;;
10096;SDS011;5087;42.662;23.466;2023-12-07T14:16:38;0.30;;;0.30;;
10096;SDS011;5087;42.662;23.466;2023-12-07T14:19:06;0.20;;;0.20;;
10096;SDS011;5087;42.662;23.466;2023-12-07T14:21:34;0.20;;;0.20;;
10096;SDS011;5087;42.662;23.466;2023-12-07T14:24:02;0.20;;;0.20;;
10096;SDS011;5087;42.662;23.466;2023-12-07T14:26:29;0.10;;;0.10;;
10096;SDS011;5087;42.662;23.466;2023-12-07T14:28:57;0.20;;;0.20;;
10096;SDS011;5087;42.662;23.466;2023-12-07T14:31:24;0.20;;;0.20;;
10096;SDS011;5087;42.662;23.466;2023-12-07T14:33:51;0.20;;;0.20;;
10096;SDS011;5087;42.662;23.466;2023-12-07T14:36:18;0.20;;;0.20;;
10096;SDS011;5087;42.662;23.466;2023-12-07T14:38:47;0.20;;;0.20;;
10096;SDS011;5087;42.662;23.466;2023-12-07T14:41:15;0.20;;;0.20;;
10096;SDS011;5087;42.662;23.466;2023-12-07T14:43:43;0.20;;;0.20;;
10096;SDS011;5087;42.662;23.466;2023-12-07T14:46:10;0.30;;;0.30;;
10096;SDS011;5087;42.662;23.466;2023-12-07T14:48:37;0.20;;;0.20;;
10096;SDS011;5087;42.662;23.466;2023-12-07T14:51:04;0.30;;;0.30;;
10096;SDS011;5087;42.662;23.466;2023-12-07T14:53:32;0.20;;;0.20;;
10096;SDS011;5087;42.662;23.466;2023-12-07T14:56:01;0.20;;;0.20;;
10096;SDS011;5087;42.662;23.466;2023-12-07T14:58:29;0.20;;;0.20;;
10096;SDS011;5087;42.662;23.466;2023-12-07T15:00:58;0.20;;;0.20;;
10096;SDS011;5087;42.662;23.466;2023-12-07T15:03:25;0.20;;;0.20;;
10096;SDS011;5087;42.662;23.466;2023-12-07T15:05:52;0.20;;;0.20;;
10096;SDS011;5087;42.662;23.466;2023-12-07T15:08:20;0.20;;;0.20;;
10096;SDS011;5087;42.662;23.466;2023-12-07T15:10:47;0.20;;;0.20;;